KBIH/BIH METAR and TAF weather

Enter ICAO airport designator
Station Type Date Time Source
KBIH METAR 2020/01/22 11:56 UTC NOAA

KBIH 221156Z AUTO 34004KT 10SM CLR M01/M04 A3012 RMK AO2 SLP191 T10061039 10022 21006 58000


Station Type Date Time Source
KBIH Decoded METAR 2020/01/22 11:56 UTC NOAA

BISHOP AIRPORT, CA, United States (KBIH) 37-22N 118-22W 1253M
Jan 22, 2020 - 06:56 AM EST / 2020.01.22 1156 UTC
Wind: from the NNW (340 degrees) at 5 MPH (4 KT):0
Visibility: 10 mile(s):0
Sky conditions: clear
Temperature: 30.9 F (-0.6 C)
Windchill: 26 F (-3 C):1
Dew Point: 25.0 F (-3.9 C)
Relative Humidity: 78%
Pressure (altimeter): 30.12 in. Hg (1019 hPa)
Pressure tendency: 0.00 inches (0.0 hPa) lower than three hours ago
ob: KBIH 221156Z AUTO 34004KT 10SM CLR M01/M04 A3012 RMK AO2 SLP191 T10061039 10022 21006 58000
cycle: 12

Station Type Date Time Source
KBIH TAF 2020/01/22 12:22 UTC NOAA

TAF KBIH 221120Z 2212/2312 03007KT P6SM SCT100 BKN150
FM221400 VRB05KT P6SM SCT080 OVC250
FM222200 32006KT P6SM BKN250

Example: see airport list